createdAt,value
2022-10-23T00:01:38.200Z,27.15
2022-10-23T00:04:12.143Z,27.58
2022-10-23T00:06:38.911Z,26.48
2022-10-23T00:09:07.170Z,28.67
2022-10-23T00:11:34.880Z,28.15
2022-10-23T00:14:04.066Z,30.65
2022-10-23T00:16:31.220Z,29.10
2022-10-23T00:18:57.939Z,28.58
2022-10-23T00:21:25.262Z,28.38
2022-10-23T00:23:52.326Z,29.67
2022-10-23T00:26:19.772Z,29.17
2022-10-23T00:28:49.705Z,29.05
2022-10-23T00:31:16.665Z,27.02
2022-10-23T00:33:44.053Z,30.90
2022-10-23T00:36:13.303Z,30.17
2022-10-23T00:38:40.137Z,32.33
2022-10-23T00:41:09.174Z,31.65
2022-10-23T00:43:55.931Z,31.35
2022-10-23T00:46:22.542Z,31.70
2022-10-23T00:48:49.190Z,31.55
2022-10-23T00:51:15.840Z,29.77
2022-10-23T00:53:43.764Z,32.22
2022-10-23T00:56:10.917Z,31.92
2022-10-23T00:58:37.532Z,32.25
2022-10-23T01:01:17.217Z,33.33
2022-10-23T01:03:44.056Z,31.98
2022-10-23T01:06:18.961Z,31.98
2022-10-23T01:08:55.797Z,32.55
2022-10-23T01:11:29.258Z,33.53
2022-10-23T01:13:58.904Z,31.35
2022-10-23T01:16:40.915Z,34.25
2022-10-23T01:19:21.504Z,32.33
2022-10-23T01:22:13.466Z,32.20
2022-10-23T01:24:55.895Z,31.02
2022-10-23T01:27:24.633Z,33.70
2022-10-23T01:30:06.699Z,32.45
2022-10-23T01:32:44.656Z,33.50
2022-10-23T01:35:35.004Z,33.00
2022-10-23T01:38:15.278Z,34.60
2022-10-23T01:40:47.731Z,32.58
2022-10-23T01:43:26.505Z,32.92
2022-10-23T01:46:04.552Z,33.35
2022-10-23T01:48:32.144Z,34.53
2022-10-23T01:51:04.895Z,36.55
2022-10-23T01:53:35.205Z,32.70
2022-10-23T01:56:03.777Z,34.30
2022-10-23T01:58:31.624Z,34.42
2022-10-23T02:01:01.455Z,40.65
2022-10-23T02:03:29.531Z,34.83
2022-10-23T02:05:56.174Z,34.35
2022-10-23T02:08:22.888Z,38.58
2022-10-23T02:11:09.494Z,36.65
2022-10-23T02:13:52.702Z,36.55
2022-10-23T02:16:52.505Z,38.28
2022-10-23T02:19:43.026Z,36.53
2022-10-23T02:22:19.315Z,36.85
2022-10-23T02:24:51.102Z,43.13
2022-10-23T02:27:22.171Z,41.95
2022-10-23T02:29:52.589Z,39.80
2022-10-23T02:32:20.788Z,47.42
2022-10-23T02:34:48.077Z,56.75
2022-10-23T02:37:15.320Z,40.33
2022-10-23T02:39:42.174Z,53.25
2022-10-23T02:42:27.074Z,42.80
2022-10-23T02:45:05.855Z,49.55
2022-10-23T02:48:04.957Z,43.28
2022-10-23T02:50:43.574Z,45.97
2022-10-23T02:53:24.114Z,44.78
2022-10-23T02:56:11.031Z,44.20
2022-10-23T02:58:45.084Z,44.97
2022-10-23T03:01:17.777Z,47.78
2022-10-23T03:03:56.816Z,51.45
2022-10-23T03:06:24.166Z,46.83
2022-10-23T03:09:10.092Z,47.08
2022-10-23T03:11:36.927Z,47.05
2022-10-23T03:14:03.554Z,50.78
2022-10-23T03:16:30.197Z,47.80
2022-10-23T03:18:56.809Z,48.60
2022-10-23T03:21:23.510Z,48.85
2022-10-23T03:23:50.155Z,53.92
2022-10-23T03:26:16.788Z,48.88
2022-10-23T03:28:43.493Z,49.03
2022-10-23T03:31:10.163Z,48.15
2022-10-23T03:33:36.875Z,55.38
2022-10-23T03:36:03.807Z,55.45
2022-10-23T03:38:30.411Z,47.40
2022-10-23T03:40:57.063Z,51.90
2022-10-23T03:43:23.696Z,49.03
2022-10-23T03:45:52.045Z,49.92
2022-10-23T03:48:18.699Z,50.47
2022-10-23T03:50:45.367Z,49.60
2022-10-23T03:53:12.082Z,54.97
2022-10-23T03:55:38.754Z,52.33
2022-10-23T03:58:05.461Z,58.67
2022-10-23T04:00:32.158Z,54.85
2022-10-23T04:02:58.819Z,60.92
2022-10-23T04:05:25.418Z,56.25
2022-10-23T04:07:52.052Z,52.95
2022-10-23T04:10:18.826Z,54.35
2022-10-23T04:12:45.675Z,52.35
2022-10-23T04:15:12.407Z,50.13
2022-10-23T04:17:39.002Z,50.67
2022-10-23T04:20:05.826Z,50.30
2022-10-23T04:22:32.389Z,50.15
2022-10-23T04:24:58.978Z,48.90
2022-10-23T04:27:25.653Z,84.78
2022-10-23T04:29:54.377Z,46.67
2022-10-23T04:32:23.494Z,48.75
2022-10-23T04:34:50.078Z,60.58
2022-10-23T04:37:17.164Z,67.80
2022-10-23T04:39:43.829Z,54.33
2022-10-23T04:42:10.486Z,68.20
2022-10-23T04:44:37.093Z,57.47
2022-10-23T04:47:03.815Z,57.53
2022-10-23T04:49:30.483Z,57.60
2022-10-23T04:51:57.104Z,55.20
2022-10-23T04:54:23.798Z,65.80
2022-10-23T04:56:50.470Z,58.17
2022-10-23T04:59:17.117Z,48.00
2022-10-23T05:01:43.812Z,55.13
2022-10-23T05:04:10.501Z,46.92
2022-10-23T05:06:37.169Z,52.42
2022-10-23T05:09:04.156Z,45.47
2022-10-23T05:11:30.799Z,46.13
2022-10-23T05:13:57.454Z,46.45
2022-10-23T05:16:32.078Z,41.90
2022-10-23T05:18:59.916Z,46.88
2022-10-23T05:21:29.363Z,47.75
2022-10-23T05:23:56.099Z,44.78
2022-10-23T05:26:22.852Z,40.03
2022-10-23T05:28:49.651Z,41.08
2022-10-23T05:31:16.503Z,41.70
2022-10-23T05:33:43.483Z,71.38
2022-10-23T05:36:11.899Z,39.67
2022-10-23T05:38:38.574Z,43.22
2022-10-23T05:41:06.021Z,42.33
2022-10-23T05:43:32.683Z,42.25
2022-10-23T05:45:59.538Z,38.88
2022-10-23T05:48:41.116Z,40.20
2022-10-23T05:51:09.891Z,39.30
2022-10-23T05:53:38.902Z,44.35
2022-10-23T05:56:09.139Z,45.58
2022-10-23T05:58:36.035Z,45.88
2022-10-23T06:01:07.734Z,44.10
2022-10-23T06:03:34.938Z,43.35
2022-10-23T06:06:01.553Z,38.72
2022-10-23T06:08:28.178Z,36.83
2022-10-23T06:10:54.802Z,38.88
2022-10-23T06:13:21.446Z,35.05
2022-10-23T06:15:48.138Z,36.20
2022-10-23T06:18:14.951Z,35.53
2022-10-23T06:20:41.612Z,37.33
2022-10-23T06:23:08.657Z,38.50
2022-10-23T06:25:35.309Z,38.75
2022-10-23T06:28:01.939Z,36.88
2022-10-23T06:30:28.629Z,38.63
2022-10-23T06:32:55.438Z,47.28
2022-10-23T06:35:22.045Z,52.70
2022-10-23T06:37:48.671Z,46.60
2022-10-23T06:40:15.413Z,33.38
2022-10-23T06:42:42.237Z,32.83
2022-10-23T06:45:09.125Z,30.13
2022-10-23T06:47:35.735Z,35.42
2022-10-23T06:50:02.376Z,36.33
2022-10-23T06:52:47.859Z,31.98
2022-10-23T06:55:15.085Z,31.20
2022-10-23T06:57:42.230Z,30.90
2022-10-23T07:00:09.881Z,31.90
2022-10-23T07:02:36.817Z,28.50
2022-10-23T07:05:04.085Z,32.42
2022-10-23T07:07:30.954Z,30.85
2022-10-23T07:09:57.745Z,35.33
2022-10-23T07:12:24.565Z,32.67
2022-10-23T07:14:51.163Z,35.03
2022-10-23T07:17:17.850Z,33.20
2022-10-23T07:19:44.557Z,30.42
2022-10-23T07:22:13.449Z,36.53
2022-10-23T07:24:42.653Z,30.88
2022-10-23T07:27:09.945Z,38.58
2022-10-23T07:29:37.105Z,34.90
2022-10-23T07:32:04.616Z,35.40
2022-10-23T07:34:32.232Z,39.10
2022-10-23T07:36:58.944Z,35.28
2022-10-23T07:39:25.756Z,34.50
2022-10-23T07:41:52.526Z,40.45
2022-10-23T07:44:21.059Z,37.72
2022-10-23T07:46:50.017Z,38.78
2022-10-23T07:49:16.661Z,34.85
2022-10-23T07:51:46.414Z,38.00
2022-10-23T07:54:15.537Z,41.15
2022-10-23T07:56:42.244Z,38.97
2022-10-23T07:59:12.353Z,40.35
2022-10-23T08:01:39.265Z,35.42
2022-10-23T08:04:06.263Z,42.58
2022-10-23T08:06:35.353Z,39.45
2022-10-23T08:09:05.441Z,38.15
2022-10-23T08:11:35.774Z,38.55
2022-10-23T08:14:04.748Z,39.17
2022-10-23T08:16:34.411Z,39.30
2022-10-23T08:19:01.437Z,41.00
2022-10-23T08:21:28.221Z,45.00
2022-10-23T08:23:56.309Z,41.25
2022-10-23T08:26:24.673Z,37.55
2022-10-23T08:28:52.287Z,40.50
2022-10-23T08:31:20.934Z,41.47
2022-10-23T08:36:25.437Z,39.13
2022-10-23T08:38:56.046Z,41.38
2022-10-23T08:41:27.898Z,41.30
2022-10-23T08:44:24.244Z,41.47
2022-10-23T08:47:13.163Z,38.92
2022-10-23T08:49:41.613Z,38.78
2022-10-23T08:52:24.413Z,43.38
2022-10-23T08:54:57.256Z,40.65
2022-10-23T08:57:24.753Z,38.78
2022-10-23T09:00:05.455Z,37.63
2022-10-23T09:02:41.606Z,34.95
2022-10-23T09:05:48.234Z,35.08
2022-10-23T09:08:39.446Z,31.67
2022-10-23T09:11:11.149Z,32.80
2022-10-23T09:13:40.710Z,34.92
2022-10-23T09:16:28.790Z,34.55
2022-10-23T09:18:55.915Z,33.35
2022-10-23T09:21:29.048Z,33.85
2022-10-23T09:23:56.487Z,33.65
2022-10-23T09:26:23.665Z,33.42
2022-10-23T09:28:55.278Z,31.60
2022-10-23T09:31:21.963Z,29.10
2022-10-23T09:33:57.125Z,33.28
2022-10-23T09:36:29.260Z,32.13
2022-10-23T09:39:01.757Z,31.92
2022-10-23T09:41:30.069Z,27.52
2022-10-23T09:44:08.899Z,29.60
2022-10-23T09:46:46.726Z,29.52
2022-10-23T09:49:22.595Z,25.67
2022-10-23T09:51:56.418Z,27.02
2022-10-23T09:54:26.355Z,26.10
2022-10-23T09:56:54.604Z,25.25
2022-10-23T09:59:25.706Z,22.67
2022-10-23T10:01:58.490Z,22.52
2022-10-23T10:04:51.554Z,23.13
2022-10-23T10:07:24.311Z,22.00
2022-10-23T10:09:52.798Z,21.60
2022-10-23T10:12:28.467Z,22.98
2022-10-23T10:15:17.086Z,22.23
2022-10-23T10:17:56.113Z,25.77
2022-10-23T10:20:44.185Z,23.38
2022-10-23T10:23:28.687Z,23.00
2022-10-23T10:26:05.036Z,21.73
2022-10-23T10:28:44.834Z,24.30
2022-10-23T10:31:43.166Z,22.10
2022-10-23T10:34:12.831Z,22.08
2022-10-23T10:37:07.899Z,24.05
2022-10-23T10:39:42.497Z,22.40
2022-10-23T10:42:55.602Z,23.23
2022-10-23T10:45:38.119Z,21.95
2022-10-23T10:48:48.871Z,21.77
2022-10-23T10:51:30.302Z,19.90
2022-10-23T10:54:11.834Z,20.33
2022-10-23T10:56:40.097Z,19.55
2022-10-23T10:59:12.727Z,21.85
2022-10-23T11:01:47.735Z,22.20
2022-10-23T11:04:41.252Z,22.33
2022-10-23T11:07:12.168Z,24.88
2022-10-23T11:09:39.551Z,22.05
2022-10-23T11:12:06.401Z,19.92
2022-10-23T11:14:34.110Z,21.10
2022-10-23T11:17:05.320Z,21.63
2022-10-23T11:19:41.264Z,22.17
2022-10-23T11:22:30.261Z,20.55
2022-10-23T11:25:19.021Z,15.15
2022-10-23T11:28:13.299Z,14.65
2022-10-23T11:30:49.112Z,17.75
2022-10-23T11:33:34.212Z,16.58
2022-10-23T11:36:07.128Z,15.60
2022-10-23T11:38:35.413Z,15.60
2022-10-23T11:41:07.454Z,13.45
2022-10-23T11:43:53.242Z,15.27
2022-10-23T11:46:23.057Z,13.15
2022-10-23T11:48:49.995Z,12.50
2022-10-23T11:51:35.878Z,16.13
2022-10-23T11:54:28.735Z,13.52
2022-10-23T11:57:10.248Z,15.15
2022-10-23T11:59:43.112Z,12.82
2022-10-23T12:02:33.732Z,13.15
2022-10-23T12:05:07.595Z,11.73
2022-10-23T12:07:38.660Z,10.23
2022-10-23T12:10:07.105Z,8.35
2022-10-23T12:12:34.698Z,7.30
2022-10-23T12:15:22.172Z,7.63
2022-10-23T12:17:50.407Z,11.98
2022-10-23T12:20:21.616Z,6.25
2022-10-23T12:23:13.069Z,5.55
2022-10-23T12:25:39.678Z,5.10
2022-10-23T12:28:06.242Z,5.15
2022-10-23T12:33:52.809Z,5.53
2022-10-23T12:36:48.073Z,5.25
2022-10-23T12:39:28.853Z,5.22
2022-10-23T12:41:55.957Z,5.80
2022-10-23T12:44:24.371Z,4.85
2022-10-23T12:46:57.492Z,4.13
2022-10-23T12:49:26.579Z,4.07
2022-10-23T12:52:04.540Z,4.82
2022-10-23T12:54:32.675Z,4.95
2022-10-23T12:56:59.334Z,4.75
2022-10-23T12:59:52.118Z,4.05
2022-10-23T13:02:23.221Z,5.55
2022-10-23T13:04:51.753Z,4.80
2022-10-23T13:07:27.253Z,4.90
2022-10-23T13:09:54.513Z,6.43
2022-10-23T13:12:32.937Z,10.23
2022-10-23T13:15:14.585Z,25.27
2022-10-23T13:17:42.550Z,8.45
2022-10-23T13:20:18.505Z,5.85
2022-10-23T13:22:47.007Z,5.32
2022-10-23T13:25:27.173Z,4.60
2022-10-23T13:28:09.017Z,4.63
2022-10-23T13:30:42.134Z,5.15
2022-10-23T13:33:20.854Z,4.43
2022-10-23T13:36:23.433Z,3.78
2022-10-23T13:39:10.334Z,4.75
2022-10-23T13:41:40.656Z,3.63
2022-10-23T13:44:07.722Z,3.60
2022-10-23T13:46:34.368Z,4.28
2022-10-23T13:49:00.987Z,4.25
2022-10-23T13:51:29.059Z,3.38
2022-10-23T13:53:56.978Z,4.40
2022-10-23T13:56:25.339Z,4.38
2022-10-23T13:58:52.064Z,4.20
2022-10-23T14:01:29.908Z,3.67
2022-10-23T14:03:58.048Z,4.95
2022-10-23T14:06:25.189Z,5.82
2022-10-23T14:08:52.146Z,4.82
2022-10-23T14:11:20.140Z,5.20
2022-10-23T14:13:48.414Z,4.68
2022-10-23T14:16:17.125Z,5.90
2022-10-23T14:18:44.057Z,5.53
2022-10-23T14:21:15.319Z,5.40
2022-10-23T14:23:41.966Z,5.07
2022-10-23T14:26:11.854Z,5.65
2022-10-23T14:28:38.873Z,7.25
2022-10-23T14:31:06.774Z,6.50
2022-10-23T14:33:33.563Z,5.40
2022-10-23T14:36:00.194Z,6.03
2022-10-23T14:38:27.202Z,6.05
2022-10-23T14:40:53.851Z,5.65
2022-10-23T14:43:20.954Z,6.10
2022-10-23T14:45:47.576Z,5.85
2022-10-23T14:48:14.256Z,7.00
2022-10-23T14:50:46.786Z,6.82
2022-10-23T14:53:14.165Z,5.35
2022-10-23T14:55:40.807Z,5.78
2022-10-23T14:58:08.037Z,6.85
2022-10-23T15:00:34.666Z,5.05
2022-10-23T15:03:01.289Z,5.70
2022-10-23T15:05:27.940Z,5.28
2022-10-23T15:07:55.970Z,5.25
2022-10-23T15:10:22.613Z,6.43
2022-10-23T15:12:49.371Z,6.70
2022-10-23T15:15:16.019Z,6.15
2022-10-23T15:17:42.632Z,6.47
2022-10-23T15:20:09.880Z,7.25
2022-10-23T15:22:36.484Z,6.53
2022-10-23T15:25:03.214Z,6.15
2022-10-23T15:27:29.838Z,5.88
2022-10-23T15:29:56.503Z,6.47
2022-10-23T15:32:23.320Z,6.75
2022-10-23T15:34:50.362Z,6.43
2022-10-23T15:37:16.962Z,6.45
2022-10-23T15:39:44.388Z,6.68
2022-10-23T15:42:11.603Z,7.20
2022-10-23T15:44:39.750Z,7.03
2022-10-23T15:47:06.439Z,7.60
2022-10-23T15:49:33.359Z,7.35
2022-10-23T15:52:00.116Z,8.15
2022-10-23T15:54:29.341Z,8.60
2022-10-23T15:56:58.720Z,9.52
2022-10-23T15:59:25.953Z,9.70
2022-10-23T16:01:52.843Z,10.18
2022-10-23T16:04:20.092Z,10.55
2022-10-23T16:06:47.145Z,9.18
2022-10-23T16:09:14.374Z,10.43
2022-10-23T16:11:42.711Z,8.95
2022-10-23T16:14:13.258Z,10.75
2022-10-23T16:16:39.974Z,8.95
2022-10-23T16:19:06.683Z,10.70
2022-10-23T16:21:35.890Z,7.60
2022-10-23T16:24:04.919Z,10.30
2022-10-23T16:26:31.832Z,9.55
2022-10-23T16:29:01.201Z,9.68
2022-10-23T16:31:28.794Z,9.52
2022-10-23T16:36:29.700Z,8.50
2022-10-23T16:38:56.765Z,8.32
2022-10-23T16:41:23.375Z,9.18
2022-10-23T16:43:50.189Z,10.35
2022-10-23T16:46:19.752Z,9.68
2022-10-23T16:48:46.693Z,8.95
2022-10-23T16:51:15.686Z,8.25
2022-10-23T16:53:43.489Z,8.35
2022-10-23T16:56:11.918Z,8.98
2022-10-23T16:58:41.027Z,8.52
2022-10-23T17:01:10.829Z,10.30
2022-10-23T17:03:39.867Z,9.45
2022-10-23T17:06:11.061Z,9.20
2022-10-23T17:08:38.026Z,8.30
2022-10-23T17:11:04.643Z,8.70
2022-10-23T17:13:31.446Z,8.25
2022-10-23T17:16:10.200Z,9.27
2022-10-23T17:18:39.914Z,7.78
2022-10-23T17:21:11.229Z,9.35
2022-10-23T17:23:37.966Z,9.07
2022-10-23T17:26:14.313Z,9.00
2022-10-23T17:28:42.470Z,8.45
2022-10-23T17:31:33.667Z,9.27
2022-10-23T17:34:04.160Z,8.07
2022-10-23T17:36:33.472Z,8.45
2022-10-23T17:39:00.238Z,7.97
2022-10-23T17:41:27.065Z,8.38
2022-10-23T17:43:58.500Z,8.85
2022-10-23T17:46:26.064Z,7.85
2022-10-23T17:48:53.177Z,9.60
2022-10-23T17:51:22.767Z,8.45
2022-10-23T17:53:51.456Z,8.30
2022-10-23T17:56:25.022Z,8.15
2022-10-23T17:58:59.261Z,8.20
2022-10-23T18:01:27.605Z,9.40
2022-10-23T18:03:55.672Z,7.32
2022-10-23T18:06:28.776Z,8.40
2022-10-23T18:08:57.148Z,7.95
2022-10-23T18:11:26.725Z,7.43
2022-10-23T18:13:54.134Z,7.32
2022-10-23T18:16:21.237Z,8.65
2022-10-23T18:18:48.888Z,8.10
2022-10-23T18:21:17.719Z,9.63
2022-10-23T18:23:44.535Z,8.38
2022-10-23T18:26:22.785Z,8.40
2022-10-23T18:28:51.729Z,7.72
2022-10-23T18:31:19.892Z,8.32
2022-10-23T18:33:47.170Z,7.68
2022-10-23T18:36:16.053Z,7.63
2022-10-23T18:38:43.368Z,7.82
2022-10-23T18:41:10.404Z,6.60
2022-10-23T18:43:44.862Z,7.88
2022-10-23T18:46:14.858Z,7.25
2022-10-23T18:48:42.238Z,7.55
2022-10-23T18:51:23.904Z,7.38
2022-10-23T18:53:50.862Z,7.25
2022-10-23T18:56:23.403Z,8.00
2022-10-23T18:58:55.647Z,8.07
2022-10-23T19:01:23.244Z,7.15
2022-10-23T19:03:50.125Z,7.40
2022-10-23T19:06:18.205Z,7.95
2022-10-23T19:08:45.517Z,7.00
2022-10-23T19:11:13.397Z,7.72
2022-10-23T19:13:40.827Z,7.78
2022-10-23T19:16:12.150Z,7.93
2022-10-23T19:18:40.970Z,7.65
2022-10-23T19:21:07.833Z,7.20
2022-10-23T19:23:36.524Z,8.02
2022-10-23T19:26:09.077Z,7.43
2022-10-23T19:28:38.026Z,8.07
2022-10-23T19:31:05.507Z,7.43
2022-10-23T19:33:32.682Z,7.30
2022-10-23T19:36:01.238Z,6.57
2022-10-23T19:38:31.904Z,7.60
2022-10-23T19:40:58.496Z,7.68
2022-10-23T19:43:25.097Z,8.82
2022-10-23T19:45:51.693Z,8.57
2022-10-23T19:48:18.345Z,7.85
2022-10-23T19:50:45.065Z,7.40
2022-10-23T19:53:11.879Z,8.43
2022-10-23T19:55:38.491Z,7.68
2022-10-23T19:58:05.124Z,7.93
2022-10-23T20:00:31.735Z,7.38
2022-10-23T20:02:58.788Z,8.25
2022-10-23T20:05:26.328Z,7.22
2022-10-23T20:07:53.344Z,8.07
2022-10-23T20:10:20.024Z,7.45
2022-10-23T20:12:56.442Z,6.97
2022-10-23T20:15:29.161Z,7.38
2022-10-23T20:17:55.909Z,8.32
2022-10-23T20:20:22.921Z,7.18
2022-10-23T20:22:54.537Z,7.85
2022-10-23T20:25:22.175Z,8.05
2022-10-23T20:27:48.882Z,6.90
2022-10-23T20:30:15.532Z,6.95
2022-10-23T20:32:42.412Z,8.02
2022-10-23T20:35:09.920Z,8.38
2022-10-23T20:37:36.558Z,7.95
2022-10-23T20:40:03.441Z,7.72
2022-10-23T20:42:30.068Z,7.90
2022-10-23T20:44:56.681Z,8.75
2022-10-23T20:47:23.299Z,7.85
2022-10-23T20:49:49.971Z,8.15
2022-10-23T20:52:16.688Z,6.95
2022-10-23T20:54:43.356Z,7.60
2022-10-23T20:57:10.013Z,7.38
2022-10-23T20:59:36.618Z,8.52
2022-10-23T21:02:03.435Z,7.38
2022-10-23T21:04:30.165Z,7.47
2022-10-23T21:07:09.981Z,8.60
2022-10-23T21:09:38.023Z,7.78
2022-10-23T21:12:06.632Z,6.95
2022-10-23T21:14:33.770Z,7.63
2022-10-23T21:17:00.496Z,6.63
2022-10-23T21:19:27.282Z,8.15
2022-10-23T21:21:54.614Z,8.00
2022-10-23T21:24:21.242Z,8.10
2022-10-23T21:26:48.061Z,7.43
2022-10-23T21:29:19.396Z,8.18
2022-10-23T21:31:54.507Z,8.90
2022-10-23T21:34:21.421Z,7.25
2022-10-23T21:37:11.210Z,9.25
2022-10-23T21:39:34.820Z,8.02
2022-10-23T21:42:01.479Z,7.75
2022-10-23T21:44:28.108Z,9.65
2022-10-23T21:46:55.365Z,8.57
2022-10-23T21:49:21.987Z,8.77
2022-10-23T21:51:48.571Z,8.25
2022-10-23T21:54:15.533Z,8.48
2022-10-23T21:56:48.243Z,8.90
2022-10-23T21:59:17.615Z,10.18
2022-10-23T22:01:45.797Z,9.75
2022-10-23T22:04:17.528Z,10.20
2022-10-23T22:06:44.882Z,8.77
2022-10-23T22:09:16.562Z,9.43
2022-10-23T22:11:43.215Z,9.25
2022-10-23T22:14:09.935Z,9.73
2022-10-23T22:16:36.762Z,10.18
2022-10-23T22:19:03.854Z,10.07
2022-10-23T22:21:30.846Z,9.00
2022-10-23T22:23:59.063Z,8.68
2022-10-23T22:26:27.557Z,9.52
2022-10-23T22:28:55.754Z,8.70
2022-10-23T22:31:25.912Z,9.07
2022-10-23T22:33:53.588Z,9.25
2022-10-23T22:36:20.617Z,9.30
2022-10-23T22:38:47.377Z,10.15
2022-10-23T22:41:14.491Z,10.23
2022-10-23T22:43:41.244Z,9.05
2022-10-23T22:46:13.433Z,8.30
2022-10-23T22:48:40.426Z,10.65
2022-10-23T22:51:09.056Z,10.82
2022-10-23T22:53:36.128Z,9.98
2022-10-23T22:56:06.675Z,9.68
2022-10-23T22:58:33.815Z,9.30
2022-10-23T23:01:11.822Z,9.95
2022-10-23T23:03:38.851Z,9.77
2022-10-23T23:06:07.088Z,9.57
2022-10-23T23:08:34.857Z,8.68
2022-10-23T23:11:01.866Z,9.60
2022-10-23T23:13:28.687Z,9.93
2022-10-23T23:15:55.625Z,9.38
2022-10-23T23:18:22.886Z,9.55
2022-10-23T23:20:49.537Z,9.75
2022-10-23T23:23:16.676Z,9.70
2022-10-23T23:25:47.462Z,8.90
2022-10-23T23:28:15.734Z,9.18
2022-10-23T23:30:43.070Z,8.70
2022-10-23T23:33:10.489Z,8.15
2022-10-23T23:35:45.048Z,7.68
2022-10-23T23:38:12.798Z,8.20
2022-10-23T23:40:40.157Z,8.55
2022-10-23T23:43:07.169Z,8.20
2022-10-23T23:45:34.105Z,9.02
2022-10-23T23:48:00.800Z,8.15
2022-10-23T23:50:28.135Z,8.10
2022-10-23T23:52:54.870Z,7.35
2022-10-23T23:55:21.495Z,7.22
2022-10-23T23:57:48.161Z,8.02
